createdAt,value
2022-08-15T00:00:20.756Z,3.20
2022-08-15T00:00:45.756Z,3.00
2022-08-15T00:01:15.301Z,3.10
2022-08-15T00:01:46.152Z,3.20
2022-08-15T00:02:34.965Z,3.00
2022-08-15T00:02:49.752Z,3.10
2022-08-15T00:03:19.625Z,3.20
2022-08-15T00:04:02.397Z,3.50
2022-08-15T00:04:34.399Z,3.30
2022-08-15T00:04:52.192Z,2.90
2022-08-15T00:05:21.925Z,3.10
2022-08-15T00:05:52.713Z,3.20
2022-08-15T00:06:39.282Z,3.30
2022-08-15T00:06:55.287Z,3.30
2022-08-15T00:07:45.750Z,3.30
2022-08-15T00:07:57.057Z,3.30
2022-08-15T00:08:50.833Z,3.20
2022-08-15T00:08:58.423Z,3.00
2022-08-15T00:09:55.417Z,3.10
2022-08-15T00:09:59.739Z,3.10
2022-08-15T00:11:00.019Z,3.30
2022-08-15T00:11:19.750Z,3.70
2022-08-15T00:11:32.333Z,3.50
2022-08-15T00:12:04.718Z,2.80
2022-08-15T00:12:35.681Z,3.00
2022-08-15T00:13:14.058Z,3.10
2022-08-15T00:13:41.292Z,2.90
2022-08-15T00:14:06.130Z,3.00
2022-08-15T00:14:36.900Z,3.20
2022-08-15T00:15:09.127Z,3.10
2022-08-15T00:15:37.477Z,3.50
2022-08-15T00:16:09.671Z,2.90
2022-08-15T00:16:38.934Z,2.90
2022-08-15T00:17:10.524Z,3.30
2022-08-15T00:17:48.617Z,3.20
2022-08-15T00:18:10.874Z,3.30
2022-08-15T00:18:42.470Z,3.30
2022-08-15T00:19:13.304Z,3.50
2022-08-15T00:19:43.101Z,3.10
2022-08-15T00:20:20.063Z,3.20
2022-08-15T00:20:50.484Z,3.20
2022-08-15T00:21:16.517Z,2.80
2022-08-15T00:21:48.936Z,2.70
2022-08-15T00:22:19.108Z,3.10
2022-08-15T00:22:47.682Z,3.50
2022-08-15T00:23:18.126Z,3.10
2022-08-15T00:23:49.940Z,3.10
2022-08-15T00:24:20.925Z,3.00
2022-08-15T00:24:52.091Z,3.10
2022-08-15T00:25:26.740Z,3.20
2022-08-15T00:25:57.844Z,3.50
2022-08-15T00:26:28.988Z,3.10
2022-08-15T00:26:56.484Z,3.30
2022-08-15T00:27:26.219Z,3.20
2022-08-15T00:27:55.996Z,3.10
2022-08-15T00:28:36.046Z,3.40
2022-08-15T00:28:58.535Z,3.30
2022-08-15T00:29:37.509Z,3.20
2022-08-15T00:29:59.708Z,3.50
2022-08-15T00:30:57.660Z,3.00
2022-08-15T00:31:00.593Z,2.90
2022-08-15T00:31:41.245Z,3.30
2022-08-15T00:32:02.086Z,3.30
2022-08-15T00:33:03.509Z,3.40
2022-08-15T00:33:20.906Z,3.10
2022-08-15T00:33:34.422Z,3.20
2022-08-15T00:34:04.996Z,3.40
2022-08-15T00:34:38.433Z,3.10
2022-08-15T00:35:08.775Z,3.50
2022-08-15T00:35:38.363Z,3.30
2022-08-15T00:36:52.309Z,3.20
2022-08-15T00:36:52.332Z,3.10
2022-08-15T00:37:09.118Z,3.40
2022-08-15T00:38:11.639Z,3.40
2022-08-15T00:38:12.477Z,3.40
2022-08-15T00:38:41.382Z,3.50
2022-08-15T00:39:11.118Z,3.40
2022-08-15T00:39:42.715Z,3.20
2022-08-15T00:40:17.952Z,3.30
2022-08-15T00:40:44.046Z,3.30
2022-08-15T00:41:13.727Z,2.90
2022-08-15T00:41:44.454Z,2.80
2022-08-15T00:42:17.198Z,3.40
2022-08-15T00:42:46.166Z,3.30
2022-08-15T00:43:18.002Z,3.20
2022-08-15T00:43:48.269Z,2.80
2022-08-15T00:44:19.641Z,3.00
2022-08-15T00:44:52.576Z,2.80
2022-08-15T00:45:21.982Z,3.00
2022-08-15T00:45:55.883Z,2.90
2022-08-15T00:46:23.425Z,3.30
2022-08-15T00:46:53.607Z,2.90
2022-08-15T00:47:24.457Z,3.00
2022-08-15T00:47:55.234Z,3.00
2022-08-15T00:48:25.912Z,2.80
2022-08-15T00:48:56.531Z,3.00
2022-08-15T00:49:26.280Z,2.80
2022-08-15T00:50:02.867Z,2.90
2022-08-15T00:50:34.243Z,2.90
2022-08-15T00:50:59.554Z,3.00
2022-08-15T00:51:30.634Z,3.00
2022-08-15T00:52:00.863Z,2.90
2022-08-15T00:52:31.555Z,2.90
2022-08-15T00:53:01.604Z,2.90
2022-08-15T00:53:32.397Z,2.90
2022-08-15T00:54:03.213Z,2.80
2022-08-15T00:54:55.901Z,2.50
2022-08-15T00:55:05.811Z,2.60
2022-08-15T00:55:35.396Z,2.90
2022-08-15T00:56:06.182Z,3.00
2022-08-15T00:56:37.999Z,2.70
2022-08-15T00:57:10.277Z,2.90
2022-08-15T00:57:59.764Z,2.80
2022-08-15T00:58:33.455Z,2.90
2022-08-15T00:58:44.013Z,2.50
2022-08-15T00:59:11.827Z,2.60
2022-08-15T00:59:43.416Z,2.40
2022-08-15T01:00:12.514Z,2.50
2022-08-15T01:00:44.951Z,2.30
2022-08-15T01:01:14.183Z,2.40
2022-08-15T01:02:00.971Z,2.30
2022-08-15T01:02:22.664Z,2.50
2022-08-15T01:02:47.657Z,2.10
2022-08-15T01:03:17.988Z,2.30
2022-08-15T01:03:53.276Z,2.20
2022-08-15T01:04:19.383Z,2.20
2022-08-15T01:04:49.125Z,2.10
2022-08-15T01:05:19.903Z,2.30
2022-08-15T01:05:52.045Z,2.00
2022-08-15T01:06:21.362Z,2.30
2022-08-15T01:06:57.258Z,2.60
2022-08-15T01:07:24.221Z,2.30
2022-08-15T01:07:54.220Z,2.20
2022-08-15T01:08:30.555Z,2.10
2022-08-15T01:08:56.589Z,2.20
2022-08-15T01:09:27.530Z,2.10
2022-08-15T01:09:58.313Z,2.40
2022-08-15T01:10:28.237Z,2.40
2022-08-15T01:11:03.178Z,2.00
2022-08-15T01:11:33.663Z,2.20
2022-08-15T01:12:00.285Z,2.00
2022-08-15T01:12:31.255Z,2.30
2022-08-15T01:13:07.651Z,2.30
2022-08-15T01:14:05.316Z,2.20
2022-08-15T01:14:56.951Z,2.20
2022-08-15T01:14:57.159Z,2.40
2022-08-15T01:15:06.119Z,2.10
2022-08-15T01:15:42.228Z,1.90
2022-08-15T01:16:07.572Z,1.90
2022-08-15T01:16:38.371Z,2.10
2022-08-15T01:17:10.542Z,2.40
2022-08-15T01:17:39.757Z,2.10
2022-08-15T01:18:33.882Z,2.00
2022-08-15T01:18:41.307Z,2.00
2022-08-15T01:19:13.499Z,1.90
2022-08-15T01:19:42.645Z,2.90
2022-08-15T01:20:24.491Z,2.20
2022-08-15T01:20:44.178Z,2.20
2022-08-15T01:21:14.915Z,2.10
2022-08-15T01:21:44.652Z,2.20
2022-08-15T01:22:16.249Z,2.30
2022-08-15T01:22:47.973Z,2.20
2022-08-15T01:23:16.849Z,2.40
2022-08-15T01:23:54.528Z,2.10
2022-08-15T01:24:19.585Z,2.00
2022-08-15T01:25:16.982Z,2.30
2022-08-15T01:25:26.598Z,2.30
2022-08-15T01:26:41.994Z,2.30
2022-08-15T01:26:42.796Z,2.40
2022-08-15T01:26:53.728Z,2.40
2022-08-15T01:27:24.438Z,2.30
2022-08-15T01:27:55.215Z,2.20
2022-08-15T01:28:31.556Z,2.10
2022-08-15T01:28:56.616Z,2.10
2022-08-15T01:29:27.510Z,2.30
2022-08-15T01:29:57.471Z,2.20
2022-08-15T01:30:39.968Z,1.90
2022-08-15T01:31:03.231Z,2.10
2022-08-15T01:31:30.373Z,2.30
2022-08-15T01:32:01.110Z,2.00
2022-08-15T01:32:31.648Z,2.20
2022-08-15T01:33:02.659Z,2.30
2022-08-15T01:33:32.568Z,2.40
2022-08-15T01:34:13.126Z,2.20
2022-08-15T01:34:35.120Z,2.30
2022-08-15T01:35:05.754Z,2.20
2022-08-15T01:35:42.226Z,2.40
2022-08-15T01:36:31.987Z,2.10
2022-08-15T01:36:38.415Z,2.40
2022-08-15T01:37:08.103Z,2.40
2022-08-15T01:37:56.717Z,2.40
2022-08-15T01:38:10.474Z,2.10
2022-08-15T01:39:05.427Z,2.50
2022-08-15T01:39:12.872Z,2.00
2022-08-15T01:39:43.807Z,2.40
2022-08-15T01:40:51.980Z,2.20
2022-08-15T01:40:53.895Z,2.40
2022-08-15T01:41:15.399Z,2.10
2022-08-15T01:41:55.453Z,2.10
2022-08-15T01:42:17.610Z,2.20
2022-08-15T01:42:47.754Z,2.20
2022-08-15T01:43:17.493Z,2.40
2022-08-15T01:43:54.580Z,2.30
2022-08-15T01:44:32.127Z,2.10
2022-08-15T01:44:59.658Z,2.20
2022-08-15T01:45:21.659Z,2.50
2022-08-15T01:45:51.544Z,2.20
2022-08-15T01:46:23.510Z,2.00
2022-08-15T01:46:54.355Z,2.30
2022-08-15T01:47:25.982Z,2.30
2022-08-15T01:47:54.922Z,2.00
2022-08-15T01:48:27.106Z,2.40
2022-08-15T01:48:56.373Z,2.20
2022-08-15T01:49:27.002Z,2.30
2022-08-15T01:49:58.798Z,2.30
2022-08-15T01:50:30.520Z,2.20
2022-08-15T01:50:59.496Z,2.30
2022-08-15T01:51:31.315Z,2.20
2022-08-15T01:52:02.336Z,2.20
2022-08-15T01:53:00.137Z,2.40
2022-08-15T01:53:16.156Z,2.30
2022-08-15T01:53:34.902Z,2.50
2022-08-15T01:54:06.487Z,2.50
2022-08-15T01:55:02.356Z,2.10
2022-08-15T01:55:08.062Z,2.10
2022-08-15T01:55:44.277Z,2.40
2022-08-15T01:56:35.382Z,2.20
2022-08-15T01:56:39.268Z,2.30
2022-08-15T01:57:10.043Z,2.30
2022-08-15T01:57:41.054Z,2.00
2022-08-15T01:58:10.930Z,2.20
2022-08-15T01:58:41.929Z,2.20
2022-08-15T01:59:13.873Z,2.30
2022-08-15T01:59:43.614Z,2.10
2022-08-15T02:00:18.658Z,2.30
2022-08-15T02:00:45.520Z,2.40
2022-08-15T02:01:16.483Z,2.20
2022-08-15T02:01:54.864Z,2.40
2022-08-15T02:02:49.817Z,2.30
2022-08-15T02:02:50.225Z,2.00
2022-08-15T02:03:20.444Z,2.40
2022-08-15T02:03:52.248Z,2.30
2022-08-15T02:04:24.761Z,2.30
2022-08-15T02:04:54.033Z,2.20
2022-08-15T02:05:23.344Z,2.20
2022-08-15T02:05:57.384Z,2.30
2022-08-15T02:06:34.999Z,2.30
2022-08-15T02:06:56.960Z,2.20
2022-08-15T02:07:26.149Z,2.10
2022-08-15T02:08:34.236Z,2.20
2022-08-15T02:08:35.034Z,2.40
2022-08-15T02:08:58.262Z,2.30
2022-08-15T02:09:38.542Z,2.10
2022-08-15T02:10:10.867Z,2.50
2022-08-15T02:10:30.475Z,2.50
2022-08-15T02:11:01.279Z,2.40
2022-08-15T02:11:41.106Z,2.30
2022-08-15T02:12:04.104Z,2.20
2022-08-15T02:13:02.980Z,2.50
2022-08-15T02:13:12.394Z,2.60
2022-08-15T02:13:35.050Z,2.30
2022-08-15T02:14:05.722Z,2.50
2022-08-15T02:14:37.450Z,2.30
2022-08-15T02:15:06.199Z,2.30
2022-08-15T02:15:37.157Z,2.20
2022-08-15T02:16:10.417Z,2.30
2022-08-15T02:16:38.771Z,2.20
2022-08-15T02:17:10.356Z,2.40
2022-08-15T02:17:41.164Z,2.50
2022-08-15T02:18:10.937Z,2.90
2022-08-15T02:18:41.719Z,2.40
2022-08-15T02:19:13.767Z,2.30
2022-08-15T02:19:45.924Z,2.50
2022-08-15T02:20:23.196Z,2.20
2022-08-15T02:20:46.186Z,2.20
2022-08-15T02:21:17.014Z,2.60
2022-08-15T02:21:46.753Z,2.30
2022-08-15T02:22:26.235Z,2.30
2022-08-15T02:22:49.279Z,2.40
2022-08-15T02:23:20.631Z,2.40
2022-08-15T02:23:49.534Z,2.50
2022-08-15T02:24:21.352Z,2.20
2022-08-15T02:24:51.896Z,2.40
2022-08-15T02:25:22.824Z,2.40
2022-08-15T02:25:53.928Z,2.60
2022-08-15T02:26:26.338Z,2.30
2022-08-15T02:26:54.915Z,2.20
2022-08-15T02:27:24.658Z,2.50
2022-08-15T02:27:56.246Z,2.50
2022-08-15T02:28:36.137Z,2.50
2022-08-15T02:28:57.596Z,2.30
2022-08-15T02:29:28.136Z,2.40
2022-08-15T02:29:58.682Z,2.50
2022-08-15T02:30:30.563Z,2.70
2022-08-15T02:31:00.175Z,2.50
2022-08-15T02:31:34.643Z,2.30
2022-08-15T02:32:00.890Z,2.50
2022-08-15T02:32:32.599Z,2.20
2022-08-15T02:33:02.374Z,2.30
2022-08-15T02:33:36.305Z,2.30
2022-08-15T02:34:03.761Z,2.40
2022-08-15T02:34:44.642Z,2.20
2022-08-15T02:35:06.357Z,2.30
2022-08-15T02:35:36.167Z,2.30
2022-08-15T02:36:12.538Z,2.40
2022-08-15T02:36:52.935Z,2.10
2022-08-15T02:37:09.570Z,2.40
2022-08-15T02:37:39.613Z,2.20
2022-08-15T02:38:11.855Z,2.30
2022-08-15T02:38:47.445Z,2.20
2022-08-15T02:39:12.750Z,2.40
2022-08-15T02:39:44.639Z,2.20
2022-08-15T02:40:47.224Z,2.20
2022-08-15T02:40:48.874Z,2.30
2022-08-15T02:41:15.816Z,2.30
2022-08-15T02:41:45.418Z,2.40
2022-08-15T02:42:17.120Z,2.40
2022-08-15T02:42:48.202Z,2.50
2022-08-15T02:43:19.801Z,2.30
2022-08-15T02:43:49.288Z,2.30
2022-08-15T02:44:23.062Z,2.30
2022-08-15T02:44:50.030Z,2.00
2022-08-15T02:45:22.388Z,2.40
2022-08-15T02:45:57.447Z,2.40
2022-08-15T02:46:28.200Z,2.40
2022-08-15T02:47:02.137Z,2.10
2022-08-15T02:47:24.783Z,2.00
2022-08-15T02:47:55.353Z,2.20
2022-08-15T02:48:27.025Z,2.20
2022-08-15T02:48:57.969Z,2.60
2022-08-15T02:49:26.720Z,2.20
2022-08-15T02:49:58.543Z,2.40
2022-08-15T02:50:28.337Z,2.40
2022-08-15T02:50:59.121Z,2.20
2022-08-15T02:51:32.131Z,2.30
2022-08-15T02:52:03.726Z,2.40
2022-08-15T02:52:32.444Z,2.70
2022-08-15T02:53:03.003Z,2.40
2022-08-15T02:53:32.576Z,2.40
2022-08-15T02:54:37.024Z,2.00
2022-08-15T02:54:38.186Z,2.30
2022-08-15T02:55:05.947Z,2.40
2022-08-15T02:55:35.603Z,2.20
2022-08-15T02:56:07.220Z,2.50
2022-08-15T02:56:37.160Z,2.50
2022-08-15T02:57:09.862Z,2.60
2022-08-15T02:57:59.176Z,2.20
2022-08-15T02:58:10.770Z,2.40
2022-08-15T02:58:41.779Z,2.40
2022-08-15T02:59:12.967Z,2.40
2022-08-15T02:59:42.692Z,2.40
2022-08-15T03:00:18.441Z,2.30
2022-08-15T03:00:44.133Z,2.20
2022-08-15T03:01:16.169Z,2.10
2022-08-15T03:01:44.656Z,2.30
2022-08-15T03:02:29.835Z,2.30
2022-08-15T03:02:47.151Z,2.40
2022-08-15T03:03:17.470Z,2.20
2022-08-15T03:03:48.729Z,2.30
2022-08-15T03:04:28.809Z,2.20
2022-08-15T03:04:50.119Z,2.30
2022-08-15T03:05:21.138Z,2.30
2022-08-15T03:05:55.110Z,2.50
2022-08-15T03:06:32.212Z,2.20
2022-08-15T03:06:53.557Z,2.40
2022-08-15T03:07:23.291Z,2.10
2022-08-15T03:07:55.106Z,2.20
2022-08-15T03:08:25.644Z,2.20
2022-08-15T03:08:56.201Z,2.60
2022-08-15T03:09:25.934Z,2.40
2022-08-15T03:09:58.435Z,2.20
2022-08-15T03:10:29.506Z,2.40
2022-08-15T03:10:59.617Z,2.10
2022-08-15T03:11:40.195Z,2.30
2022-08-15T03:12:07.647Z,2.10
2022-08-15T03:12:32.740Z,2.40
2022-08-15T03:13:01.688Z,2.20
2022-08-15T03:13:39.341Z,2.20
2022-08-15T03:14:04.063Z,2.30
2022-08-15T03:14:34.966Z,2.50
2022-08-15T03:15:04.717Z,2.20
2022-08-15T03:15:36.286Z,2.30
2022-08-15T03:16:06.026Z,2.10
2022-08-15T03:16:37.847Z,2.20
2022-08-15T03:17:08.078Z,2.20
2022-08-15T03:17:39.234Z,2.40
2022-08-15T03:18:10.201Z,2.10
2022-08-15T03:18:41.109Z,2.00
2022-08-15T03:19:10.837Z,2.30
2022-08-15T03:19:45.333Z,2.40
2022-08-15T03:20:13.412Z,2.10
2022-08-15T03:20:44.896Z,2.30
2022-08-15T03:21:14.531Z,2.30
2022-08-15T03:21:45.517Z,2.10
2022-08-15T03:22:19.967Z,2.20
2022-08-15T03:22:47.383Z,2.20
2022-08-15T03:23:17.529Z,2.30
2022-08-15T03:23:48.084Z,2.00
2022-08-15T03:24:18.667Z,2.20
2022-08-15T03:24:49.234Z,2.20
2022-08-15T03:25:29.803Z,2.20
2022-08-15T03:25:55.298Z,2.10
2022-08-15T03:26:26.564Z,2.30
2022-08-15T03:26:54.837Z,2.30
2022-08-15T03:27:23.036Z,2.20
2022-08-15T03:27:53.560Z,1.90
2022-08-15T03:28:28.194Z,2.00
2022-08-15T03:29:00.814Z,2.10
2022-08-15T03:29:34.088Z,2.10
2022-08-15T03:29:56.674Z,2.30
2022-08-15T03:30:27.209Z,2.00
2022-08-15T03:30:56.953Z,2.40
2022-08-15T03:31:28.536Z,2.30
2022-08-15T03:31:59.315Z,2.10
2022-08-15T03:32:36.813Z,2.50
2022-08-15T03:33:00.979Z,2.10
2022-08-15T03:33:55.072Z,2.10
2022-08-15T03:34:02.291Z,2.30
2022-08-15T03:34:32.932Z,2.20
2022-08-15T03:35:03.507Z,2.20
2022-08-15T03:35:34.052Z,2.10
2022-08-15T03:36:04.946Z,2.40
2022-08-15T03:36:34.678Z,1.90
2022-08-15T03:37:06.630Z,1.90
2022-08-15T03:37:43.775Z,2.40
2022-08-15T03:38:08.318Z,2.10
2022-08-15T03:38:52.101Z,2.20
2022-08-15T03:39:09.827Z,2.00
2022-08-15T03:39:40.389Z,2.20
2022-08-15T03:40:11.551Z,2.10
2022-08-15T03:40:44.400Z,2.20
2022-08-15T03:41:11.613Z,2.10
2022-08-15T03:41:43.204Z,2.40
2022-08-15T03:42:18.364Z,2.20
2022-08-15T03:42:44.778Z,2.20
2022-08-15T03:43:15.553Z,2.00
2022-08-15T03:43:46.507Z,2.10
2022-08-15T03:44:26.759Z,1.80
2022-08-15T03:44:50.818Z,2.10
2022-08-15T03:45:18.079Z,2.00
2022-08-15T03:45:50.617Z,1.90
2022-08-15T03:46:23.841Z,2.10
2022-08-15T03:46:50.826Z,2.10
2022-08-15T03:47:20.580Z,2.10
2022-08-15T03:47:56.004Z,2.00
2022-08-15T03:48:22.362Z,2.10
2022-08-15T03:48:55.348Z,2.00
2022-08-15T03:50:22.448Z,2.10
2022-08-15T03:50:24.678Z,2.30
2022-08-15T03:50:35.587Z,2.00
2022-08-15T03:50:57.900Z,2.20
2022-08-15T03:51:26.111Z,2.00
2022-08-15T03:51:57.907Z,1.90
2022-08-15T03:52:33.383Z,2.00
2022-08-15T03:52:59.358Z,2.00
2022-08-15T03:53:29.438Z,2.10
2022-08-15T03:53:59.703Z,1.90
2022-08-15T03:54:31.447Z,2.20
2022-08-15T03:55:02.176Z,2.20
2022-08-15T03:55:33.174Z,2.20
2022-08-15T03:56:03.067Z,1.90
2022-08-15T03:56:34.747Z,2.00
2022-08-15T03:57:05.715Z,2.20
2022-08-15T03:58:01.595Z,2.00
2022-08-15T03:58:07.201Z,2.10
2022-08-15T03:58:37.249Z,2.00
2022-08-15T03:59:12.169Z,1.70
2022-08-15T03:59:40.588Z,2.10
2022-08-15T04:00:10.572Z,2.00
2022-08-15T04:00:41.610Z,2.20
2022-08-15T04:01:13.564Z,2.00
2022-08-15T04:01:43.298Z,2.10
2022-08-15T04:02:30.867Z,1.80
2022-08-15T04:02:44.638Z,1.80
2022-08-15T04:03:14.324Z,2.10
2022-08-15T04:03:45.879Z,1.80
2022-08-15T04:04:19.024Z,2.00
2022-08-15T04:04:47.575Z,1.90
2022-08-15T04:05:18.392Z,2.10
2022-08-15T04:05:48.111Z,2.10
2022-08-15T04:06:28.127Z,1.90
2022-08-15T04:07:00.369Z,1.90
2022-08-15T04:07:23.528Z,1.80
2022-08-15T04:07:57.566Z,1.90
2022-08-15T04:09:04.050Z,2.00
2022-08-15T04:09:12.617Z,1.90
2022-08-15T04:09:29.999Z,1.90
2022-08-15T04:09:56.639Z,2.00
2022-08-15T04:10:37.167Z,1.90
2022-08-15T04:10:56.624Z,1.90
2022-08-15T04:11:34.818Z,2.30
2022-08-15T04:11:58.100Z,1.80
2022-08-15T04:12:29.621Z,2.00
2022-08-15T04:12:59.683Z,1.90
2022-08-15T04:13:29.686Z,2.10
2022-08-15T04:14:01.454Z,2.10
2022-08-15T04:14:35.730Z,1.90
2022-08-15T04:15:02.183Z,2.40
2022-08-15T04:15:33.931Z,1.90
2022-08-15T04:16:06.342Z,2.00
2022-08-15T04:17:02.880Z,2.00
2022-08-15T04:17:13.755Z,2.00
2022-08-15T04:17:57.874Z,1.90
2022-08-15T04:18:42.990Z,2.00
2022-08-15T04:18:43.440Z,2.00
2022-08-15T04:19:09.475Z,1.80
2022-08-15T04:19:46.217Z,2.10
2022-08-15T04:20:18.576Z,1.80
2022-08-15T04:20:43.027Z,2.00
2022-08-15T04:21:11.282Z,2.00
2022-08-15T04:21:50.473Z,2.00
2022-08-15T04:22:28.821Z,1.90
2022-08-15T04:22:52.503Z,1.90
2022-08-15T04:23:14.992Z,1.80
2022-08-15T04:23:44.871Z,2.00
2022-08-15T04:24:28.749Z,2.20
2022-08-15T04:24:47.149Z,1.70
2022-08-15T04:25:20.054Z,1.90
2022-08-15T04:25:54.729Z,2.10
2022-08-15T04:26:21.358Z,1.90
2022-08-15T04:26:53.466Z,1.80
2022-08-15T04:27:20.964Z,2.10
2022-08-15T04:27:53.529Z,2.10
2022-08-15T04:28:28.699Z,2.00
2022-08-15T04:28:55.498Z,1.80
2022-08-15T04:29:24.575Z,2.00
2022-08-15T04:29:54.265Z,2.10
2022-08-15T04:30:26.243Z,2.10
2022-08-15T04:30:57.246Z,2.00
2022-08-15T04:31:33.175Z,2.00
2022-08-15T04:31:58.959Z,2.10
2022-08-15T04:32:35.082Z,1.70
2022-08-15T04:33:18.570Z,2.00
2022-08-15T04:34:22.521Z,1.90
2022-08-15T04:34:47.580Z,2.00
2022-08-15T04:34:48.874Z,2.00
2022-08-15T04:35:03.384Z,2.00
2022-08-15T04:35:34.511Z,2.00
2022-08-15T04:36:04.193Z,1.90
2022-08-15T04:36:36.235Z,2.00
2022-08-15T04:37:12.460Z,2.10
2022-08-15T04:37:39.582Z,1.80
2022-08-15T04:38:08.671Z,2.00
2022-08-15T04:38:39.713Z,1.90
2022-08-15T04:39:12.781Z,1.80
2022-08-15T04:39:40.590Z,2.00
2022-08-15T04:41:15.562Z,1.80
2022-08-15T04:41:19.161Z,1.60
2022-08-15T04:41:19.402Z,2.00
2022-08-15T04:41:50.509Z,1.70
2022-08-15T04:42:22.603Z,2.30
2022-08-15T04:42:49.958Z,1.80
2022-08-15T04:43:16.098Z,2.00
2022-08-15T04:43:47.128Z,1.80
2022-08-15T04:44:18.004Z,1.80
2022-08-15T04:44:48.789Z,2.00
2022-08-15T04:45:19.656Z,2.10
2022-08-15T04:45:50.620Z,1.80
2022-08-15T04:46:22.899Z,1.70
2022-08-15T04:46:51.982Z,1.80
2022-08-15T04:47:21.987Z,1.90
2022-08-15T04:47:53.658Z,2.00
2022-08-15T04:48:24.294Z,2.10
2022-08-15T04:48:55.162Z,1.90
2022-08-15T04:49:24.767Z,1.90
2022-08-15T04:49:56.288Z,2.00
2022-08-15T04:50:28.524Z,1.80
2022-08-15T04:50:58.035Z,1.90
2022-08-15T04:51:34.966Z,2.00
2022-08-15T04:51:59.792Z,1.90
2022-08-15T04:52:30.673Z,1.90
2022-08-15T04:53:01.340Z,1.70
2022-08-15T04:53:32.329Z,2.10
2022-08-15T04:54:03.326Z,2.10
2022-08-15T04:54:35.471Z,1.80
2022-08-15T04:55:05.023Z,1.80
2022-08-15T04:55:44.747Z,1.80
2022-08-15T04:56:06.768Z,1.80
2022-08-15T04:56:51.357Z,1.60
2022-08-15T04:57:08.214Z,1.90
2022-08-15T04:57:43.946Z,1.70
2022-08-15T04:58:41.605Z,1.70
2022-08-15T04:58:42.071Z,2.80
2022-08-15T04:59:33.743Z,1.90
2022-08-15T05:00:05.677Z,1.90
2022-08-15T05:00:13.190Z,1.70
2022-08-15T05:00:43.363Z,1.80
2022-08-15T05:01:13.912Z,1.60
2022-08-15T05:02:04.833Z,1.90
2022-08-15T05:02:53.644Z,2.60
2022-08-15T05:02:54.510Z,1.90
2022-08-15T05:03:17.094Z,1.80
2022-08-15T05:03:54.616Z,1.80
2022-08-15T05:04:23.997Z,2.00
2022-08-15T05:04:50.152Z,1.90
2022-08-15T05:05:20.362Z,1.90
2022-08-15T05:05:55.187Z,1.90
2022-08-15T05:06:29.137Z,1.70
2022-08-15T05:06:52.830Z,1.90
2022-08-15T05:07:27.869Z,2.00
2022-08-15T05:07:58.420Z,1.80
2022-08-15T05:08:25.406Z,2.00
2022-08-15T05:08:55.935Z,2.00
2022-08-15T05:09:26.957Z,2.00
2022-08-15T05:09:58.728Z,1.80
2022-08-15T05:10:33.304Z,1.70
2022-08-15T05:10:59.349Z,1.90
2022-08-15T05:12:01.165Z,2.00
2022-08-15T05:12:09.267Z,1.80
2022-08-15T05:12:33.632Z,2.00
2022-08-15T05:13:02.630Z,1.80
2022-08-15T05:13:33.367Z,1.90
2022-08-15T05:14:03.877Z,2.00
2022-08-15T05:14:36.544Z,2.00
2022-08-15T05:15:05.783Z,1.60
2022-08-15T05:15:35.083Z,1.70
2022-08-15T05:16:06.853Z,2.20
2022-08-15T05:16:36.743Z,1.70
2022-08-15T05:17:10.766Z,1.90
2022-08-15T05:17:56.492Z,2.00
2022-08-15T05:18:17.160Z,1.70
2022-08-15T05:18:40.741Z,1.70
2022-08-15T05:19:11.462Z,1.80
2022-08-15T05:19:42.480Z,1.50
2022-08-15T05:20:13.480Z,1.70
2022-08-15T05:20:44.125Z,1.90
2022-08-15T05:21:15.136Z,1.90
2022-08-15T05:21:45.993Z,1.90
2022-08-15T05:22:16.741Z,1.90
2022-08-15T05:22:54.936Z,1.80
2022-08-15T05:23:18.480Z,1.90
2022-08-15T05:23:52.419Z,2.20
2022-08-15T05:24:29.348Z,1.90
2022-08-15T05:24:50.610Z,1.90
2022-08-15T05:25:21.334Z,1.80
2022-08-15T05:25:52.334Z,1.70
2022-08-15T05:26:37.552Z,1.80
2022-08-15T05:26:57.800Z,1.60
2022-08-15T05:27:24.791Z,1.70
2022-08-15T05:27:55.516Z,1.90
2022-08-15T05:28:29.176Z,1.80
2022-08-15T05:28:58.151Z,1.50
2022-08-15T05:29:27.822Z,1.80
2022-08-15T05:29:58.960Z,2.00
2022-08-15T05:30:30.534Z,1.50
2022-08-15T05:31:04.430Z,1.70
2022-08-15T05:31:32.338Z,1.80
2022-08-15T05:32:02.243Z,1.80
2022-08-15T05:32:32.768Z,1.60
2022-08-15T05:33:03.665Z,1.80
2022-08-15T05:33:56.742Z,2.00
2022-08-15T05:34:05.046Z,1.70
2022-08-15T05:34:37.648Z,1.70
2022-08-15T05:35:06.670Z,1.70
2022-08-15T05:35:37.508Z,1.70
2022-08-15T05:36:08.375Z,1.90
2022-08-15T05:36:39.107Z,1.70
2022-08-15T05:37:09.926Z,1.80
2022-08-15T05:37:41.756Z,1.90
2022-08-15T05:38:22.510Z,1.80
2022-08-15T05:38:42.672Z,1.90
2022-08-15T05:39:13.223Z,1.70
2022-08-15T05:39:44.013Z,1.60
2022-08-15T05:40:23.649Z,1.80
2022-08-15T05:40:45.700Z,1.70
2022-08-15T05:41:16.213Z,1.60
2022-08-15T05:41:46.947Z,1.50
2022-08-15T05:42:30.672Z,1.80
2022-08-15T05:42:48.627Z,1.60
2022-08-15T05:43:19.256Z,1.70
2022-08-15T05:43:54.456Z,1.70
2022-08-15T05:44:39.274Z,1.50
2022-08-15T05:44:53.178Z,1.70
2022-08-15T05:45:31.283Z,1.50
2022-08-15T05:45:52.958Z,1.50
2022-08-15T05:46:25.225Z,1.70
2022-08-15T05:46:54.477Z,1.50
2022-08-15T05:47:25.509Z,1.50
2022-08-15T05:47:55.090Z,1.70
2022-08-15T05:48:37.984Z,1.70
2022-08-15T05:48:57.429Z,1.70
2022-08-15T05:49:28.156Z,1.60
2022-08-15T05:50:02.431Z,1.70
2022-08-15T05:50:29.994Z,1.80
2022-08-15T05:51:01.018Z,1.60
2022-08-15T05:51:31.506Z,1.50
2022-08-15T05:52:02.232Z,1.70
2022-08-15T05:52:34.662Z,1.70
2022-08-15T05:53:05.796Z,1.70
2022-08-15T05:53:34.851Z,1.70
2022-08-15T05:54:05.606Z,1.60
2022-08-15T05:54:36.245Z,1.80
2022-08-15T05:55:07.496Z,1.40
2022-08-15T05:55:38.024Z,1.60
2022-08-15T05:56:08.610Z,1.60
2022-08-15T05:56:39.146Z,1.60
2022-08-15T05:57:08.831Z,1.30
2022-08-15T05:57:40.458Z,1.80
2022-08-15T05:58:36.488Z,1.80
2022-08-15T05:58:44.804Z,1.50
2022-08-15T05:59:12.770Z,1.70
2022-08-15T05:59:48.667Z,1.60
2022-08-15T06:00:16.074Z,1.50
2022-08-15T06:00:44.419Z,1.60
2022-08-15T06:01:17.294Z,1.70
2022-08-15T06:02:35.362Z,1.60
2022-08-15T06:02:37.560Z,1.90
2022-08-15T06:02:53.339Z,1.70
2022-08-15T06:03:18.921Z,1.60
2022-08-15T06:03:49.001Z,1.40
2022-08-15T06:04:29.268Z,1.40
2022-08-15T06:04:51.388Z,1.50
2022-08-15T06:05:22.153Z,1.40
2022-08-15T06:05:53.687Z,1.40
2022-08-15T06:06:26.572Z,1.40
2022-08-15T06:06:54.450Z,1.60
2022-08-15T06:07:55.761Z,1.60
2022-08-15T06:07:59.830Z,1.30
2022-08-15T06:08:49.994Z,1.60
2022-08-15T06:09:01.459Z,1.50
2022-08-15T06:09:28.146Z,1.40
2022-08-15T06:09:58.697Z,1.40
2022-08-15T06:10:36.509Z,1.50
2022-08-15T06:10:59.964Z,1.30
2022-08-15T06:11:30.497Z,1.40
2022-08-15T06:12:05.282Z,1.60
2022-08-15T06:12:32.258Z,1.50
2022-08-15T06:13:03.161Z,1.30
2022-08-15T06:13:33.883Z,1.60
2022-08-15T06:14:07.039Z,1.40
2022-08-15T06:14:36.876Z,1.60
2022-08-15T06:15:05.988Z,1.50
2022-08-15T06:15:37.016Z,1.60
2022-08-15T06:16:45.469Z,1.60
2022-08-15T06:16:46.144Z,1.40
2022-08-15T06:17:09.202Z,1.70
2022-08-15T06:17:38.939Z,1.40
2022-08-15T06:18:09.611Z,1.30
2022-08-15T06:18:41.152Z,1.30
2022-08-15T06:19:12.190Z,1.80
2022-08-15T06:19:43.680Z,1.60
2022-08-15T06:20:29.560Z,1.50
2022-08-15T06:20:51.507Z,1.30
2022-08-15T06:21:14.751Z,1.40
2022-08-15T06:21:45.290Z,1.50
2022-08-15T06:22:16.307Z,1.60
2022-08-15T06:22:46.396Z,1.50
2022-08-15T06:23:16.724Z,1.60
2022-08-15T06:23:48.276Z,1.40
2022-08-15T06:24:26.641Z,1.40
2022-08-15T06:24:50.047Z,1.60
2022-08-15T06:25:19.711Z,1.40
2022-08-15T06:25:50.437Z,1.30
2022-08-15T06:26:22.588Z,1.50
2022-08-15T06:26:52.262Z,1.60
2022-08-15T06:27:40.046Z,1.50
2022-08-15T06:27:57.779Z,1.50
2022-08-15T06:28:53.906Z,1.50
2022-08-15T06:28:56.233Z,1.60
2022-08-15T06:29:27.224Z,1.40
2022-08-15T06:29:56.907Z,1.50
2022-08-15T06:30:28.434Z,1.50
2022-08-15T06:30:58.971Z,1.40
2022-08-15T06:31:38.867Z,1.60
2022-08-15T06:32:00.807Z,1.50
2022-08-15T06:32:32.002Z,1.30
2022-08-15T06:33:01.381Z,1.40
2022-08-15T06:33:56.383Z,1.40
2022-08-15T06:34:05.416Z,1.30
2022-08-15T06:34:46.137Z,1.50
2022-08-15T06:35:05.413Z,1.40
2022-08-15T06:35:36.142Z,1.50
2022-08-15T06:36:06.807Z,1.60
2022-08-15T06:36:37.670Z,1.50
2022-08-15T06:37:10.398Z,1.50
2022-08-15T06:38:00.335Z,1.40
2022-08-15T06:38:30.903Z,1.50
2022-08-15T06:38:43.183Z,1.50
2022-08-15T06:39:11.381Z,1.60
2022-08-15T06:39:42.453Z,1.50
2022-08-15T06:40:27.878Z,1.40
2022-08-15T06:40:43.899Z,2.30
2022-08-15T06:41:14.726Z,1.50
2022-08-15T06:41:49.330Z,1.50
2022-08-15T06:42:16.191Z,1.50
2022-08-15T06:42:48.923Z,1.30
2022-08-15T06:43:18.028Z,1.20
2022-08-15T06:43:48.599Z,1.70
2022-08-15T06:44:21.434Z,1.40
2022-08-15T06:44:50.303Z,1.20
2022-08-15T06:45:21.220Z,1.40
2022-08-15T06:45:51.223Z,1.60
2022-08-15T06:46:39.499Z,1.30
2022-08-15T06:46:57.176Z,1.60
2022-08-15T06:47:24.799Z,1.50
2022-08-15T06:47:55.488Z,1.40
2022-08-15T06:48:55.413Z,1.50
2022-08-15T06:49:01.378Z,1.50
2022-08-15T06:49:34.391Z,1.50